Tiempo atmosférico en la estación meteorológica de Prat de Lluçanès, Barcelona (700 m.)



Fecha
DESCASC
Temp. máxima en grados centígrados (hora)
DESCASC
Temp. mínima en grados centígrados (hora)
DESCASC
Temp. media en grados centígrados
DESCASC
Racha de viento máxima en m/sg (hora)
DESCASC
Velocidad máxima media en intervalos de 10 minutos(hora)
DESCASC
Precipitaciones diarias en mm
DESCASC
Precipitaciones de 00:00 a 06:00 en mm
DESCASC
Precipitaciones de 06:00 a 12:00 en mm
DESCASC
Precipitaciones de 12:00 a 18:00 en mm
DESCASC
Precipitaciones de 18:00 a 24:00 en mm
DESCASC

Gráficas

Temp. máximas Temp. mínimas Temp. medias Precipitaciones Rachas de viento máximas Velocidades máximas media en intervalos de 10 minutos

Datos horarios

Fecha y hora oficial Temperatura (ºC) Velocidad del viento (km/h) Dirección del viento Racha (km/h) Dirección de racha Precipitación (mm) Presión (hPa) Tendencia (hPa) Humedad (%)
2020-01-21 23:00:00 7 20 Este 51 Nordeste 3.6 -- -- 93
2020-01-21 22:00:00 6.8 19 Nordeste 65 Nordeste 1.2 -- -- 93
2020-01-21 21:00:00 6.9 24 Nordeste 53 Nordeste 0.2 -- -- 92
2020-01-21 20:00:00 6.6 19 Nordeste 46 Nordeste 0.4 -- -- 94
2020-01-21 19:00:00 6.7 20 Nordeste 41 Este 0.2 -- -- 92
2020-01-21 18:00:00 6.5 15 Nordeste 41 Nordeste 0.2 -- -- 92
2020-01-21 17:00:00 6 8 Norte 36 Nordeste 0.2 -- -- 91
2020-01-21 16:00:00 6.2 13 Nordeste 37 Este 1.2 -- -- 92
2020-01-21 15:00:00 5.1 11 Nordeste 29 Nordeste 3.4 -- -- 95
2020-01-21 14:00:00 5.7 13 Nordeste 32 Nordeste 2.8 -- -- 93
2020-01-21 13:00:00 5.5 13 Nordeste 32 Este 4 -- -- 94
2020-01-21 12:00:00 4.7 15 Nordeste 28 Nordeste 2.4 -- -- 93
2020-01-21 11:00:00 4.4 11 Nordeste 33 Nordeste 1.2 -- -- 92
2020-01-21 10:00:00 3.9 10 Nordeste 35 Nordeste 1.4 -- -- 92
2020-01-21 09:00:00 3.6 12 Nordeste 34 Nordeste 0.6 -- -- 91
2020-01-21 08:00:00 2.8 8 Norte 33 Nordeste 1 -- -- 92
2020-01-21 07:00:00 2.7 12 Nordeste 35 Nordeste 0.4 -- -- 91
2020-01-21 06:00:00 2.1 16 Nordeste 36 Nordeste 1.6 -- -- 94
2020-01-21 05:00:00 1.8 14 Nordeste 33 Nordeste 1.2 -- -- 94
2020-01-21 04:00:00 2 14 Nordeste 38 Nordeste 0.8 -- -- 93
2020-01-21 03:00:00 2.3 22 Nordeste 41 Nordeste 0.2 -- -- 90
2020-01-21 02:00:00 3 20 Nordeste 51 Nordeste 0 -- -- 86
2020-01-21 01:00:00 3.6 27 Nordeste 49 Nordeste 0 -- -- 80
2020-01-21 00:00:00 4.5 26 Este 52 Este 0 -- -- 74
2020-01-20 23:00:00 3.9 24 Nordeste 55 Este 0 -- -- 77
2020-01-20 22:00:00 3.6 22 Nordeste 44 Este 0 -- -- 79
2020-01-20 21:00:00 2.9 24 Nordeste 44 Este 0 -- -- 83
2020-01-20 20:00:00 3.2 26 Nordeste 46 Nordeste 0 -- -- 77
2020-01-20 19:00:00 4 19 Nordeste 41 Nordeste 0 -- -- 71
2020-01-20 18:00:00 4.4 18 Nordeste 38 Nordeste 0 -- -- 66
2020-01-20 17:00:00 4.5 14 Nordeste 39 Nordeste 0 -- -- 66
2020-01-20 16:00:00 5.2 18 Nordeste 47 Nordeste 0 -- -- 62
2020-01-20 15:00:00 5.5 18 Nordeste 44 Nordeste 0 -- -- 60
2020-01-20 14:00:00 5.6 19 Nordeste 45 Nordeste 0 -- -- 61
2020-01-20 13:00:00 5 19 Nordeste 49 Nordeste 0 -- -- 65
2020-01-20 12:00:00 5.1 17 Nordeste 51 Nordeste 0 -- -- 64
2020-01-20 11:00:00 4.3 20 Nordeste 46 Nordeste 0 -- -- 67
2020-01-20 10:00:00 3.2 22 Nordeste 50 Nordeste 0 -- -- 73
2020-01-20 09:00:00 3.5 24 Nordeste 51 Nordeste 0 -- -- 66
2020-01-20 08:00:00 3.5 20 Nordeste 46 Nordeste 0 -- -- 64
2020-01-20 07:00:00 4 19 Nordeste 44 Nordeste 0 -- -- 58
2020-01-20 06:00:00 4.9 21 Nordeste 45 Nordeste 0 -- -- 46
2020-01-20 05:00:00 4.9 20 Nordeste 52 Norte 0 -- -- 41
2020-01-20 04:00:00 4.8 15 Nordeste 39 Nordeste 0 -- -- 36
2020-01-20 03:00:00 4.8 14 Nordeste 30 Nordeste 0 -- -- 32
2020-01-20 02:00:00 4.8 12 Nordeste 21 Nordeste 0 -- -- 29
2020-01-20 01:00:00 4.6 10 Nordeste 37 Nordeste 0 -- -- 29
2020-01-20 00:00:00 4 9 Nordeste 23 Nordeste 0 -- -- 30
2020-01-19 23:00:00 3.9 6 Norte 19 Nordeste 0 -- -- 34
2020-01-19 22:00:00 3.9 7 Norte 23 Este 0 -- -- 35
2020-01-19 21:00:00 4.7 11 Nordeste 32 Nordeste 0 -- -- 30
2020-01-19 20:00:00 4.8 10 Nordeste 25 Nordeste 0 -- -- 28
2020-01-19 19:00:00 5.1 10 Nordeste 20 Nordeste 0 -- -- 26
2020-01-19 18:00:00 6 10 Nordeste 31 Nordeste 0 -- -- 23
2020-01-19 17:00:00 7.4 12 Nordeste 32 Este 0 -- -- 24
2020-01-19 16:00:00 8.4 14 Nordeste 31 Nordeste 0 -- -- 24
2020-01-19 15:00:00 9.1 13 Nordeste 39 Nordeste 0 -- -- 29
2020-01-19 14:00:00 9 13 Nordeste 31 Nordeste 0 -- -- 38
2020-01-19 13:00:00 8.6 13 Nordeste 31 Este 0 -- -- 40
2020-01-19 12:00:00 7.1 6 Este 19 Nordeste 0 -- -- 52
2020-01-19 11:00:00 5.3 10 Nordeste 21 Este 0 -- -- 59
2020-01-19 10:00:00 3.9 11 Nordeste 20 Nordeste 0 -- -- 77
2020-01-19 09:00:00 3.2 9 Nordeste 17 Nordeste 0 -- -- 88
2020-01-19 08:00:00 3.5 7 Nordeste 19 Este 0 -- -- 91
2020-01-19 07:00:00 4 10 Nordeste 18 Este 0.2 -- -- 93
2020-01-19 06:00:00 5 7 Nordeste 13 Nordeste 0 -- -- 87
2020-01-19 05:00:00 5.2 7 Nordeste 13 Nordeste 0 -- -- 81
2020-01-19 04:00:00 4.8 6 Nordeste 13 Nordeste 0 -- -- 82
2020-01-19 03:00:00 4.7 7 Nordeste 15 Nordeste 0 -- -- 80
2020-01-19 02:00:00 4.6 7 Nordeste 16 Nordeste 0 -- -- 76
2020-01-19 01:00:00 4.4 7 Nordeste 15 Nordeste 0 -- -- 76
2020-01-19 00:00:00 2.5 3 Norte 5 Nordeste 0 -- -- 84
2020-01-18 23:00:00 2.5 3 Norte 5 Noroeste 0 -- -- 87
2020-01-18 22:00:00 1.6 3 Norte 6 Noroeste 0 -- -- 89
2020-01-18 21:00:00 1.3 4 Noroeste 6 Norte 0 -- -- 84
2020-01-18 20:00:00 1.4 4 Norte 6 Norte 0 -- -- 83
2020-01-18 19:00:00 3.2 2 Norte 7 Oeste 0 -- -- 74
2020-01-18 18:00:00 6.4 4 Noroeste 17 Sur 0 -- -- 62
2020-01-18 17:00:00 9.3 12 Sur 18 Sur 0 -- -- 54
2020-01-18 16:00:00 10.1 10 Sur 18 Sur 0 -- -- 55
2020-01-18 15:00:00 9.8 9 Sur 20 Sudoeste 0 -- -- 53
2020-01-18 14:00:00 9.5 8 Sur 17 Sudoeste 0 -- -- 63
2020-01-18 13:00:00 6.5 3 Sudeste 9 Este 0 -- -- 76
2020-01-18 12:00:00 4.8 4 Noroeste 12 Noroeste 0 -- -- 83
2020-01-18 11:00:00 4.4 9 Oeste 14 Sur 0 -- -- 84
2020-01-18 10:00:00 2.7 3 Norte 9 Norte 0 -- -- 90
2020-01-18 09:00:00 2 3 Este 6 Noroeste 0 -- -- 93
2020-01-18 08:00:00 1.8 0 Calma 5 Norte 0 -- -- 92
2020-01-18 07:00:00 2.8 2 Noroeste 8 Norte 0 -- -- 88
2020-01-18 06:00:00 3.5 4 Norte 10 Norte 0 -- -- 86
2020-01-18 05:00:00 1.2 4 Norte 9 Norte 0 -- -- 97
2020-01-18 04:00:00 2.4 3 Nordeste 8 Nordeste 0 -- -- 91
2020-01-18 03:00:00 1.7 3 Nordeste 7 Nordeste 0 -- -- 95
2020-01-18 02:00:00 -0.8 5 Norte 6 Noroeste 0 -- -- 93
2020-01-18 01:00:00 0 4 Norte 7 Oeste 0 -- -- 90
2020-01-18 00:00:00 0.7 4 Sur 12 Sur 0 -- -- 86
2020-01-17 23:00:00 0.6 3 Norte 8 Este 0 -- -- 80
2020-01-17 22:00:00 5.1 5 Sudoeste 18 Oeste -- -- -- 61
2020-01-17 21:00:00 3.1 3 Noroeste 9 Sudoeste 0 -- -- 74
2020-01-17 20:00:00 3.7 5 Sudoeste 7 Sudoeste 0 -- -- 75
2020-01-17 19:00:00 6.4 2 Sudoeste 9 Sudoeste 0 -- -- 69
2020-01-17 18:00:00 9.1 4 Nordeste 26 Sudoeste 0 -- -- 64
2020-01-17 17:00:00 10.4 15 Sudoeste 34 Sudoeste 0 -- -- 67
2020-01-17 16:00:00 11.4 21 Sudoeste 42 Sur 0 -- -- 63
2020-01-17 15:00:00 12 20 Sudoeste 41 Sur 0 -- -- 62
2020-01-17 14:00:00 11.9 21 Sudoeste 35 Sudoeste 0 -- -- 64
2020-01-17 13:00:00 11 16 Oeste 31 Sur 0 -- -- 69
2020-01-17 12:00:00 9.1 9 Sur 26 Sur 0 -- -- 78
2020-01-17 11:00:00 6.2 4 Sur 9 Sur 0 -- -- 100
2020-01-17 10:00:00 4.7 3 Sur 7 Sur 0 -- -- 100
2020-01-17 09:00:00 1.2 5 Noroeste 8 Noroeste 0 -- -- 100
2020-01-17 08:00:00 1.3 2 Sudeste 6 Noroeste 0 -- -- 100
2020-01-17 07:00:00 2.1 0 Calma 5 Nordeste 0 -- -- 100
2020-01-17 06:00:00 2.2 0 Calma 6 Noroeste 0 -- -- 100
2020-01-17 05:00:00 1.7 4 Norte 7 Noroeste 0 -- -- 100
2020-01-17 04:00:00 2.5 0 Calma 6 Noroeste 0 -- -- 100
2020-01-17 03:00:00 0.8 0 Calma 7 Norte 0 -- -- 100
2020-01-17 02:00:00 0.7 3 Noroeste 5 Norte 0 -- -- 99
2020-01-17 01:00:00 1.2 3 Norte 6 Norte 0 -- -- 99
2020-01-17 00:00:00 1.9 0 Calma 4 Sudoeste 0 -- -- 99
2020-01-16 23:00:00 1.6 0 Calma 4 Norte 0 -- -- 93
2020-01-16 22:00:00 3.5 0 Calma 6 Oeste 0 -- -- 90
2020-01-16 21:00:00 5.6 3 Oeste 9 Oeste 0 -- -- 85
2020-01-16 20:00:00 5.8 4 Oeste 9 Oeste 0 -- -- 90
2020-01-16 19:00:00 7.7 3 Oeste 21 Sudoeste 0 -- -- 82
2020-01-16 18:00:00 9.5 8 Sur 25 Sudoeste 0 -- -- 76
2020-01-16 17:00:00 11.5 11 Sur 24 Sur 0 -- -- 65
2020-01-16 16:00:00 12.9 10 Sur 21 Sur 0 -- -- 58
2020-01-16 15:00:00 12.3 7 Sur 16 Sur 0 -- -- 61
2020-01-16 14:00:00 11.3 4 Sur 14 Sur 0 -- -- 61
2020-01-16 13:00:00 8.2 4 Sur 12 Sur 0 -- -- 70
2020-01-16 12:00:00 6.7 3 Sudeste 8 Este 0 -- -- 72
2020-01-16 11:00:00 5.3 2 Sur 5 Sur 0 -- -- 79
2020-01-16 10:00:00 2.7 0 Calma 6 Norte 0 -- -- 90
2020-01-16 09:00:00 -1.4 2 Norte 7 Noroeste 0 -- -- 97
2020-01-16 08:00:00 -2.1 5 Noroeste 7 Noroeste 0 -- -- 96
2020-01-16 07:00:00 -2 4 Norte 5 Noroeste 0 -- -- 95
2020-01-16 06:00:00 -1.4 3 Norte 6 Noroeste 0 -- -- 95
2020-01-16 05:00:00 -1.1 6 Norte 8 Norte 0 -- -- 93
2020-01-16 04:00:00 -0.9 5 Noroeste 6 Noroeste 0 -- -- 95
2020-01-16 03:00:00 -0.2 3 Norte 8 Noroeste 0 -- -- 93
2020-01-16 02:00:00 0 6 Noroeste 8 Noroeste 0 -- -- 93
2020-01-16 01:00:00 -0.2 3 Norte 6 Noroeste 0 -- -- 93
2020-01-16 00:00:00 0.6 5 Norte 7 Noroeste 0 -- -- 92
2020-01-15 23:00:00 0.6 4 Norte 7 Noroeste 0 -- -- 92
2020-01-15 22:00:00 2.2 2 Norte 11 Nordeste 0 -- -- 86
2020-01-15 21:00:00 0.8 5 Norte 7 Noroeste 0 -- -- 92
2020-01-15 20:00:00 1.9 0 Calma 6 Noroeste 0 -- -- 91
2020-01-15 19:00:00 2.5 3 Norte 6 Noroeste 0 -- -- 89
2020-01-15 18:00:00 5.5 0 Calma 5 Este 0 -- -- 77
2020-01-15 17:00:00 8.6 0 Calma 8 Sur 0 -- -- 65
2020-01-15 16:00:00 9.2 5 Sur 14 Sudoeste 0 -- -- 62
2020-01-15 15:00:00 9.2 5 Sur 23 Sudoeste 0 -- -- 62
2020-01-15 14:00:00 8.3 6 Sur 14 Sur 0 -- -- 65
2020-01-15 13:00:00 5.9 4 Sur 10 Sur 0 -- -- 75
2020-01-15 12:00:00 5 2 Sudeste 6 Sudoeste 0 -- -- 79
2020-01-15 11:00:00 3.4 3 Sur 8 Sur 0 -- -- 84
2020-01-15 10:00:00 2.1 0 Calma 5 Este 0 -- -- 100
2020-01-15 09:00:00 1.2 0 Calma 3 Este 0 -- -- 100
2020-01-15 08:00:00 2 0 Calma 5 Sur 0 -- -- 100
2020-01-15 07:00:00 1.5 0 Calma 5 Noroeste 0 -- -- 99
2020-01-15 06:00:00 2.7 0 Calma 7 Sudoeste 0 -- -- 99
2020-01-15 05:00:00 3.1 2 Sur 13 Sudoeste 0 -- -- 100
2020-01-15 04:00:00 3.2 7 Sudoeste 15 Sudoeste 0 -- -- 99
2020-01-15 03:00:00 3 2 Sur 10 Sur 0 -- -- 98
2020-01-15 02:00:00 3.3 5 Sur 11 Sudoeste 0 -- -- 99
2020-01-15 01:00:00 0.9 3 Oeste 6 Sudoeste 0 -- -- 96
2020-01-15 00:00:00 0.2 3 Sudoeste 5 Oeste 0 -- -- 94
2020-01-14 23:00:00 0.8 3 Sudoeste 5 Sudoeste 0 -- -- 90
2020-01-14 22:00:00 -0.1 3 Noroeste 5 Noroeste 0 -- -- 86
2020-01-14 21:00:00 0.2 3 Noroeste 6 Noroeste 0 -- -- 86
2020-01-14 20:00:00 1.1 0 Calma 4 Oeste 0 -- -- 83
2020-01-14 19:00:00 1.8 0 Calma 5 Norte 0 -- -- 82
2020-01-14 18:00:00 6.2 0 Calma 12 Sur 0 -- -- 66
2020-01-14 17:00:00 9.3 9 Sur 18 Oeste 0 -- -- 53
2020-01-14 16:00:00 10 13 Sudoeste 23 Sudoeste 0 -- -- 50
2020-01-14 15:00:00 9.6 9 Sudoeste 22 Sudoeste 0 -- -- 53
2020-01-14 14:00:00 8.3 10 Sudoeste 18 Sur 0 -- -- 54
2020-01-14 13:00:00 6 6 Sudoeste 14 Sudoeste 0 -- -- 65
2020-01-14 12:00:00 3.8 3 Sur 10 Sudoeste 0 -- -- 75
2020-01-14 11:00:00 2.4 3 Sur 6 Sudoeste 0 -- -- 78
2020-01-14 10:00:00 0.5 0 Calma 3 Noroeste 0 -- -- 93
2020-01-14 09:00:00 -2.8 2 Noroeste 6 Noroeste 0 -- -- 96
2020-01-14 08:00:00 -3 0 Calma 6 Noroeste 0 -- -- 95
2020-01-14 07:00:00 -3.2 5 Noroeste 6 Noroeste 0 -- -- 95
2020-01-14 06:00:00 -2.7 3 Noroeste 6 Noroeste 0 -- -- 95
2020-01-14 05:00:00 -2.9 4 Noroeste 6 Noroeste 0 -- -- 96
2020-01-14 04:00:00 -2.7 4 Noroeste 6 Noroeste 0 -- -- 97
2020-01-14 03:00:00 -2.7 4 Noroeste 6 Noroeste 0 -- -- 97
2020-01-14 02:00:00 -2.6 4 Norte 7 Norte 0 -- -- 96
2020-01-14 01:00:00 -2.4 3 Noroeste 6 Noroeste 0 -- -- 95
2020-01-14 00:00:00 -1.6 3 Norte 6 Noroeste 0 -- -- 95
2020-01-13 23:00:00 -1.2 2 Noroeste 5 Norte 0 -- -- 95
2020-01-13 22:00:00 -0.9 3 Norte 8 Norte 0 -- -- 95
2020-01-13 21:00:00 -0.5 5 Noroeste 7 Noroeste 0 -- -- 93
2020-01-13 20:00:00 0.6 3 Norte 6 Noroeste 0 -- -- 89
2020-01-13 19:00:00 2.3 4 Norte 6 Noroeste 0 -- -- 86
2020-01-13 18:00:00 3.9 0 Calma 3 Sur 0 -- -- 80
2020-01-13 17:00:00 5.9 3 Sur 8 Sur 0 -- -- 68
2020-01-13 16:00:00 7.4 3 Sur 10 Sudoeste 0 -- -- 63
2020-01-13 15:00:00 8.4 3 Sur 13 Sur 0 -- -- 62
2020-01-13 14:00:00 7.8 3 Sur 10 Sur 0 -- -- 65
2020-01-13 13:00:00 6.7 4 Sur 9 Sur 0 -- -- 67
2020-01-13 12:00:00 5.1 3 Sur 6 Sur 0 -- -- 72
2020-01-13 11:00:00 3.1 0 Calma 4 Sur 0 -- -- 77
2020-01-13 10:00:00 0.5 2 Noroeste 4 Norte 0 -- -- 96
2020-01-13 09:00:00 -2.9 3 Noroeste 6 Noroeste 0 -- -- 96
2020-01-13 08:00:00 -3.8 5 Noroeste 6 Noroeste 0 -- -- 96
2020-01-13 07:00:00 -3.6 5 Noroeste 6 Noroeste 0 -- -- 95
2020-01-13 06:00:00 -3.2 4 Norte 6 Noroeste 0 -- -- 96
2020-01-13 05:00:00 -2.9 3 Norte 6 Norte 0 -- -- 96
2020-01-13 04:00:00 -2.5 3 Norte 8 Noroeste 0 -- -- 96
2020-01-13 03:00:00 -2.4 5 Norte 6 Noroeste 0 -- -- 97
2020-01-13 02:00:00 -2.2 3 Norte 6 Noroeste 0 -- -- 97
2020-01-13 01:00:00 -2 0 Calma 6 Noroeste 0 -- -- 96
2020-01-13 00:00:00 -1.6 4 Norte 7 Noroeste 0 -- -- 95
2020-01-12 23:00:00 -1.3 5 Noroeste 8 Noroeste 0 -- -- 95
2020-01-12 22:00:00 -0.8 4 Noroeste 6 Noroeste 0 -- -- 96
2020-01-12 21:00:00 -0.1 4 Norte 6 Noroeste 0 -- -- 94
2020-01-12 20:00:00 0.3 2 Norte 4 Norte 0 -- -- 90
2020-01-12 19:00:00 1.3 3 Noroeste 5 Norte 0 -- -- 83
2020-01-12 18:00:00 4.4 3 Noroeste 8 Sudoeste 0 -- -- 70
2020-01-12 17:00:00 9.4 4 Sur 12 Sur 0 -- -- 45
2020-01-12 16:00:00 11 6 Sur 13 Sur 0 -- -- 43
2020-01-12 15:00:00 10.9 5 Sur 15 Sudoeste 0 -- -- 46
2020-01-12 14:00:00 10.5 4 Sur 12 Sudoeste 0 -- -- 43
2020-01-12 13:00:00 7.1 2 Sudoeste 5 Sudoeste 0 -- -- 60
2020-01-12 12:00:00 4.7 2 Oeste 5 Este 0 -- -- 80
2020-01-12 11:00:00 2.7 0 Calma 5 Nordeste 0 -- -- 88
2020-01-12 10:00:00 0.5 2 Noroeste 6 Noroeste 0 -- -- 95
2020-01-12 09:00:00 -3.3 3 Noroeste 6 Noroeste 0 -- -- 96
2020-01-12 08:00:00 -3.7 4 Norte 6 Noroeste 0 -- -- 98
2020-01-12 07:00:00 -3.4 4 Norte 6 Noroeste 0 -- -- 98
2020-01-12 06:00:00 -3.1 5 Noroeste 6 Noroeste 0 -- -- 99
2020-01-12 05:00:00 -3 3 Norte 5 Norte 0 -- -- 99
2020-01-12 04:00:00 -2.5 4 Noroeste 7 Norte 0 -- -- 99
2020-01-12 03:00:00 -2.5 5 Noroeste 8 Norte 0 -- -- 99
2020-01-12 02:00:00 -2.3 5 Norte 6 Noroeste 0 -- -- 99
2020-01-12 01:00:00 -2.3 4 Norte 6 Noroeste 0 -- -- 99
2020-01-12 00:00:00 -1.9 4 Norte 7 Noroeste 0 -- -- 99
2020-01-11 23:00:00 -1.5 4 Noroeste 6 Noroeste 0 -- -- 99
2020-01-11 22:00:00 -1.1 4 Noroeste 6 Noroeste 0 -- -- 99
2020-01-11 21:00:00 -0.7 3 Norte 5 Noroeste 0 -- -- 99
2020-01-11 20:00:00 -0.3 4 Noroeste 6 Noroeste 0 -- -- 98
2020-01-11 19:00:00 0.5 4 Noroeste 5 Noroeste 0 -- -- 95
2020-01-11 18:00:00 3 2 Oeste 4 Sur 0 -- -- 90
2020-01-11 17:00:00 5.6 2 Oeste 7 Este 0 -- -- 83
2020-01-11 16:00:00 6.3 2 Norte 8 Nordeste 0 -- -- 83
2020-01-11 15:00:00 4.2 2 Sudeste 8 Noroeste 0 -- -- 97
2020-01-11 14:00:00 1.9 4 Noroeste 10 Oeste 0 -- -- 100
2020-01-11 13:00:00 1.6 2 Noroeste 9 Sur 0 -- -- 100
2020-01-11 12:00:00 1.4 3 Noroeste 9 Sudoeste 0 -- -- 100
2020-01-11 11:00:00 1.2 3 Sur 6 Este 0 -- -- 100
2020-01-11 10:00:00 1.1 3 Sur 7 Sudoeste 0 -- -- 100
2020-01-11 09:00:00 1.3 0 Calma 5 Sudoeste 0 -- -- 100
2020-01-11 08:00:00 1.3 2 Oeste 6 Nordeste 0 -- -- 100
2020-01-11 07:00:00 1.4 2 Sur 6 Sudoeste 0 -- -- 100
2020-01-11 06:00:00 1.6 0 Calma 4 Noroeste 0 -- -- 100
2020-01-11 05:00:00 1.7 2 Sudoeste 8 Sur 0 -- -- 100
2020-01-11 04:00:00 1.9 7 Oeste 10 Oeste 0 -- -- 100
2020-01-11 03:00:00 2.3 6 Oeste 8 Noroeste 0 -- -- 100
2020-01-11 02:00:00 2.6 0 Calma 8 Noroeste 0 -- -- 100
2020-01-11 01:00:00 2.9 5 Sudoeste 9 Sudoeste 0 -- -- 100
2020-01-11 00:00:00 3 0 Calma 8 Este 0 -- -- 100
2020-01-10 23:00:00 3 0 Calma 6 Nordeste 0 -- -- 100
2020-01-10 22:00:00 3.3 3 Nordeste 7 Nordeste 0 -- -- 100
2020-01-10 21:00:00 3.5 2 Este 8 Este 0 -- -- 99
2020-01-10 20:00:00 3.1 0 Calma 4 Norte 0 -- -- 98
2020-01-10 19:00:00 3.2 0 Calma 6 Sur 0 -- -- 93
2020-01-10 18:00:00 5.4 0 Calma 6 Sur 0 -- -- 90
2020-01-10 17:00:00 7.9 5 Sur 13 Sur 0 -- -- 83
2020-01-10 16:00:00 8.5 4 Sur 11 Sur 0 -- -- 84
2020-01-10 15:00:00 8.7 8 Sur 21 Sudoeste 0 -- -- 80
2020-01-10 14:00:00 8.4 12 Sudoeste 19 Sur 0 -- -- 80
2020-01-10 13:00:00 6.7 12 Oeste 22 Oeste 0 -- -- 90
2020-01-10 12:00:00 5.6 8 Oeste 14 Oeste 0 -- -- 95
2020-01-10 11:00:00 5.2 4 Noroeste 8 Noroeste 0 -- -- 95
2020-01-10 10:00:00 4.9 3 Nordeste 19 Este 0.6 -- -- 94
2020-01-10 09:00:00 5.4 7 Este 22 Este 0.4 -- -- 95
2020-01-10 08:00:00 5.7 5 Nordeste 11 Nordeste 1.2 -- -- 97
2020-01-10 07:00:00 5.7 3 Norte 10 Nordeste 0.6 -- -- 95
2020-01-10 06:00:00 6.1 3 Nordeste 12 Este 0 -- -- 91
2020-01-10 05:00:00 5.3 4 Norte 9 Nordeste 0 -- -- 94
2020-01-10 04:00:00 4.5 0 Calma 6 Norte 0 -- -- 97
2020-01-10 03:00:00 5 0 Calma 10 Nordeste 0 -- -- 96
2020-01-10 02:00:00 4.8 3 Nordeste 10 Nordeste 0 -- -- 100
2020-01-10 01:00:00 3.9 0 Calma 6 Este 0 -- -- 100
2020-01-10 00:00:00 4.3 3 Este 5 Este 0 -- -- 100
2020-01-09 23:00:00 3.7 3 Oeste 8 Sudoeste 0 -- -- 98
2020-01-09 22:00:00 4.7 3 Sur 9 Sudoeste 0 -- -- 98
2020-01-09 21:00:00 5.3 2 Sur 9 Sur 0 -- -- 97
2020-01-09 20:00:00 6.2 5 Sur 10 Oeste 0 -- -- 93
2020-01-09 19:00:00 7 5 Sur 11 Sudoeste 0 -- -- 91
2020-01-09 18:00:00 8 6 Sur 18 Sudoeste 0 -- -- 88
2020-01-09 17:00:00 10.4 8 Sur 20 Sudoeste 0 -- -- 73
2020-01-09 16:00:00 11.9 9 Sur 20 Sudoeste 0 -- -- 61
2020-01-09 15:00:00 11.8 12 Sur 24 Sur 0 -- -- 62
2020-01-09 14:00:00 11.7 9 Sur 20 Sur 0 -- -- 67
2020-01-09 13:00:00 8.9 4 Sur 12 Sur 0 -- -- 83
2020-01-09 12:00:00 7.2 3 Sur 7 Sur 0 -- -- 98
2020-01-09 11:00:00 5.7 3 Sur 4 Sudoeste 0 -- -- 100
2020-01-09 10:00:00 3 0 Calma 4 Norte 0 -- -- 100
2020-01-09 09:00:00 0.3 2 Norte 5 Noroeste 0 -- -- 100
2020-01-09 08:00:00 0.4 0 Calma 6 Noroeste 0 -- -- 100
2020-01-09 07:00:00 -0.1 5 Norte 6 Norte 0 -- -- 100
2020-01-09 06:00:00 0 4 Norte 6 Noroeste 0 -- -- 100
2020-01-09 05:00:00 -0.1 4 Noroeste 5 Noroeste 0 -- -- 100
2020-01-09 04:00:00 0.6 3 Norte 5 Noroeste 0 -- -- 99
2020-01-09 03:00:00 0.8 4 Norte 6 Norte 0 -- -- 99
2020-01-09 02:00:00 1.1 5 Norte 7 Noroeste 0 -- -- 99
2020-01-09 01:00:00 1.2 5 Norte 7 Noroeste 0 -- -- 99
2020-01-09 00:00:00 1.7 5 Noroeste 6 Noroeste 0 -- -- 97
2020-01-08 23:00:00 2.7 3 Noroeste 6 Norte 0 -- -- 97
2020-01-08 22:00:00 2.4 6 Noroeste 8 Noroeste 0 -- -- 95
2020-01-08 21:00:00 3.2 3 Norte 5 Noroeste 0 -- -- 91
2020-01-08 20:00:00 4.3 0 Calma 4 Norte 0 -- -- 88
2020-01-08 19:00:00 5.7 0 Calma 3 Sur 0 -- -- 83
2020-01-08 18:00:00 7.9 0 Calma 9 Sudoeste 0 -- -- 73
2020-01-08 17:00:00 12.6 5 Sudoeste 11 Sudoeste 0 -- -- 56
2020-01-08 16:00:00 13.7 8 Oeste 13 Oeste 0 -- -- 46
2020-01-08 15:00:00 13.8 6 Oeste 10 Noroeste 0 -- -- 48
2020-01-08 14:00:00 13.7 0 Calma 8 Sudoeste 0 -- -- 50
2020-01-08 13:00:00 10.7 2 Sudeste 9 Noroeste 0 -- -- 55
2020-01-08 12:00:00 9.5 6 Noroeste 14 Oeste 0 -- -- 53
2020-01-08 11:00:00 8.6 6 Noroeste 9 Noroeste 0 -- -- 53
2020-01-08 10:00:00 4.9 0 Calma 5 Norte 0 -- -- 67
2020-01-08 09:00:00 1.3 4 Norte 8 Noroeste 0 -- -- 81
2020-01-08 08:00:00 1.2 4 Norte 8 Noroeste 0 -- -- 79
2020-01-08 07:00:00 2.4 2 Norte 8 Noroeste 0 -- -- 71
2020-01-08 06:00:00 2.5 3 Noroeste 7 Norte 0 -- -- 71
2020-01-08 05:00:00 1.8 3 Norte 8 Norte 0 -- -- 78
2020-01-08 04:00:00 1.5 4 Norte 8 Noroeste 0 -- -- 82
2020-01-08 03:00:00 1.5 4 Noroeste 9 Noroeste 0 -- -- 83
2020-01-08 02:00:00 1.3 6 Noroeste 8 Norte 0 -- -- 86
2020-01-08 01:00:00 1.3 4 Noroeste 7 Norte 0 -- -- 86
2020-01-08 00:00:00 1.9 4 Norte 8 Noroeste 0 -- -- 88
2020-01-07 23:00:00 3.1 4 Norte 7 Norte 0 -- -- 86
2020-01-07 22:00:00 3.7 0 Calma 7 Norte 0 -- -- 90
2020-01-07 21:00:00 2.9 5 Noroeste 8 Noroeste 0 -- -- 94
2020-01-07 20:00:00 3.4 4 Norte 6 Noroeste 0 -- -- 91
2020-01-07 19:00:00 4.2 5 Noroeste 6 Noroeste 0 -- -- 89
2020-01-07 18:00:00 7 4 Noroeste 6 Noroeste 0 -- -- 80
2020-01-07 17:00:00 11.9 0 Calma 5 Sur 0 -- -- 60
2020-01-07 16:00:00 12.1 2 Sur 5 Sur 0 -- -- 61
2020-01-07 15:00:00 12.2 2 Sur 9 Sur 0 -- -- 62
2020-01-07 14:00:00 11.7 4 Sur 9 Sur 0 -- -- 63
2020-01-07 13:00:00 9.1 3 Sudoeste 7 Sudoeste 0 -- -- 65
2020-01-07 12:00:00 6.9 2 Sur 5 Este 0 -- -- 77
2020-01-07 11:00:00 5.1 0 Calma 6 Sudoeste 0 -- -- 88
2020-01-07 10:00:00 3 0 Calma 5 Norte 0 -- -- 98
2020-01-07 09:00:00 -0.2 4 Noroeste 9 Noroeste 0 -- -- 98
2020-01-07 08:00:00 -1.2 5 Noroeste 6 Noroeste 0 -- -- 98
2020-01-07 07:00:00 -1 0 Calma 8 Noroeste 0 -- -- 99
2020-01-07 06:00:00 -1.2 3 Noroeste 8 Noroeste 0 -- -- 98
2020-01-07 05:00:00 -1 3 Norte 8 Noroeste 0 -- -- 97
2020-01-07 04:00:00 -0.2 0 Calma 8 Noroeste 0 -- -- 97
2020-01-07 03:00:00 -0.1 4 Noroeste 9 Noroeste 0 -- -- 98
2020-01-07 02:00:00 -0.3 0 Calma 8 Noroeste 0 -- -- 96
2020-01-07 01:00:00 -0.3 6 Noroeste 7 Noroeste 0 -- -- 95
2020-01-07 00:00:00 0.6 2 Norte 8 Noroeste 0 -- -- 95
2020-01-06 23:00:00 0.3 4 Noroeste 8 Norte 0 -- -- 95
2020-01-06 22:00:00 0.7 5 Norte 7 Noroeste 0 -- -- 95
2020-01-06 21:00:00 1.2 4 Norte 6 Noroeste 0 -- -- 93
2020-01-06 20:00:00 1.7 5 Noroeste 6 Noroeste 0 -- -- 92
2020-01-06 19:00:00 3 5 Noroeste 6 Noroeste 0 -- -- 87
2020-01-06 18:00:00 5.6 5 Noroeste 6 Norte 0 -- -- 78
2020-01-06 17:00:00 10.7 3 Sur 9 Sudoeste 0 -- -- 58
2020-01-06 16:00:00 12 3 Sur 8 Sur 0 -- -- 52
2020-01-06 15:00:00 11.7 5 Sudoeste 10 Sur 0 -- -- 53
2020-01-06 14:00:00 11.1 3 Sur 9 Sur 0 -- -- 55
2020-01-06 13:00:00 8.3 3 Sur 10 Sudoeste 0 -- -- 63
2020-01-06 12:00:00 7.1 3 Sur 5 Sur 0 -- -- 69
2020-01-06 11:00:00 6.2 2 Sudoeste 5 Sudoeste 0 -- -- 70
2020-01-06 10:00:00 3.7 0 Calma 6 Noroeste 0 -- -- 82